sensor_id;sensor_type;location;lat;lon;timestamp;P1;durP1;ratioP1;P2;durP2;ratioP2
26540;SDS011;14206;50.202;10.948;2023-03-01T00:01:15;9.10;;;5.53;;
26540;SDS011;14206;50.202;10.948;2023-03-01T00:03:46;8.02;;;5.57;;
26540;SDS011;14206;50.202;10.948;2023-03-01T00:06:14;8.40;;;5.38;;
26540;SDS011;14206;50.202;10.948;2023-03-01T00:08:41;8.30;;;5.53;;
26540;SDS011;14206;50.202;10.948;2023-03-01T00:11:18;7.72;;;5.07;;
26540;SDS011;14206;50.202;10.948;2023-03-01T00:13:55;7.03;;;4.53;;
26540;SDS011;14206;50.202;10.948;2023-03-01T00:16:26;8.57;;;4.78;;
26540;SDS011;14206;50.202;10.948;2023-03-01T00:18:58;7.63;;;4.85;;
26540;SDS011;14206;50.202;10.948;2023-03-01T00:21:25;7.35;;;4.85;;
26540;SDS011;14206;50.202;10.948;2023-03-01T00:23:53;7.00;;;4.82;;
26540;SDS011;14206;50.202;10.948;2023-03-01T00:26:21;7.78;;;5.18;;
26540;SDS011;14206;50.202;10.948;2023-03-01T00:28:49;8.48;;;5.30;;
26540;SDS011;14206;50.202;10.948;2023-03-01T00:31:17;5.90;;;4.30;;
26540;SDS011;14206;50.202;10.948;2023-03-01T00:33:46;8.50;;;4.75;;
26540;SDS011;14206;50.202;10.948;2023-03-01T00:36:14;6.68;;;4.30;;
26540;SDS011;14206;50.202;10.948;2023-03-01T00:38:43;8.02;;;4.88;;
26540;SDS011;14206;50.202;10.948;2023-03-01T00:41:12;9.18;;;5.28;;
26540;SDS011;14206;50.202;10.948;2023-03-01T00:43:40;8.35;;;4.88;;
26540;SDS011;14206;50.202;10.948;2023-03-01T00:46:09;8.63;;;5.40;;
26540;SDS011;14206;50.202;10.948;2023-03-01T00:48:37;6.95;;;4.57;;
26540;SDS011;14206;50.202;10.948;2023-03-01T00:51:13;7.38;;;4.80;;
26540;SDS011;14206;50.202;10.948;2023-03-01T00:53:45;7.50;;;4.85;;
26540;SDS011;14206;50.202;10.948;2023-03-01T00:56:13;7.55;;;5.05;;
26540;SDS011;14206;50.202;10.948;2023-03-01T00:58:42;8.45;;;4.90;;
26540;SDS011;14206;50.202;10.948;2023-03-01T01:01:10;8.07;;;4.72;;
26540;SDS011;14206;50.202;10.948;2023-03-01T01:03:45;7.65;;;4.47;;
26540;SDS011;14206;50.202;10.948;2023-03-01T01:06:26;7.88;;;4.65;;
26540;SDS011;14206;50.202;10.948;2023-03-01T01:09:02;7.60;;;4.47;;
26540;SDS011;14206;50.202;10.948;2023-03-01T01:11:31;7.38;;;4.47;;
26540;SDS011;14206;50.202;10.948;2023-03-01T01:14:00;10.45;;;5.05;;
26540;SDS011;14206;50.202;10.948;2023-03-01T01:16:28;8.68;;;5.00;;
26540;SDS011;14206;50.202;10.948;2023-03-01T01:18:56;8.48;;;5.25;;
26540;SDS011;14206;50.202;10.948;2023-03-01T01:21:24;6.78;;;4.50;;
26540;SDS011;14206;50.202;10.948;2023-03-01T01:23:51;9.68;;;4.72;;
26540;SDS011;14206;50.202;10.948;2023-03-01T01:26:22;7.53;;;4.25;;
26540;SDS011;14206;50.202;10.948;2023-03-01T01:28:51;7.65;;;4.85;;
26540;SDS011;14206;50.202;10.948;2023-03-01T01:31:19;7.35;;;4.60;;
26540;SDS011;14206;50.202;10.948;2023-03-01T01:33:51;8.75;;;4.93;;
26540;SDS011;14206;50.202;10.948;2023-03-01T01:36:19;7.63;;;4.70;;
26540;SDS011;14206;50.202;10.948;2023-03-01T01:38:46;8.23;;;4.68;;
26540;SDS011;14206;50.202;10.948;2023-03-01T01:41:14;8.27;;;5.15;;
26540;SDS011;14206;50.202;10.948;2023-03-01T01:43:42;7.88;;;4.75;;
26540;SDS011;14206;50.202;10.948;2023-03-01T01:46:30;10.35;;;5.80;;
26540;SDS011;14206;50.202;10.948;2023-03-01T01:52:07;8.20;;;4.78;;
26540;SDS011;14206;50.202;10.948;2023-03-01T01:57:32;8.40;;;5.28;;
26540;SDS011;14206;50.202;10.948;2023-03-01T02:00:06;9.05;;;5.75;;
26540;SDS011;14206;50.202;10.948;2023-03-01T02:02:38;10.90;;;6.70;;
26540;SDS011;14206;50.202;10.948;2023-03-01T02:05:53;11.38;;;6.82;;
26540;SDS011;14206;50.202;10.948;2023-03-01T02:08:02;9.82;;;6.40;;
26540;SDS011;14206;50.202;10.948;2023-03-01T02:10:29;8.23;;;5.47;;
26540;SDS011;14206;50.202;10.948;2023-03-01T02:12:59;10.57;;;6.82;;
26540;SDS011;14206;50.202;10.948;2023-03-01T02:15:27;11.63;;;6.70;;
26540;SDS011;14206;50.202;10.948;2023-03-01T02:18:01;8.98;;;5.35;;
26540;SDS011;14206;50.202;10.948;2023-03-01T02:23:00;8.20;;;5.22;;
26540;SDS011;14206;50.202;10.948;2023-03-01T02:25:30;7.38;;;4.85;;
26540;SDS011;14206;50.202;10.948;2023-03-01T02:30:42;8.45;;;4.63;;
26540;SDS011;14206;50.202;10.948;2023-03-01T02:33:32;6.13;;;4.25;;
26540;SDS011;14206;50.202;10.948;2023-03-01T02:36:06;7.32;;;4.82;;
26540;SDS011;14206;50.202;10.948;2023-03-01T02:38:37;7.50;;;4.80;;
26540;SDS011;14206;50.202;10.948;2023-03-01T02:41:04;8.25;;;5.10;;
26540;SDS011;14206;50.202;10.948;2023-03-01T02:43:33;8.32;;;4.75;;
26540;SDS011;14206;50.202;10.948;2023-03-01T02:46:03;6.70;;;4.22;;
26540;SDS011;14206;50.202;10.948;2023-03-01T02:48:45;7.82;;;4.97;;
26540;SDS011;14206;50.202;10.948;2023-03-01T02:56:20;9.18;;;5.22;;
26540;SDS011;14206;50.202;10.948;2023-03-01T02:58:47;8.73;;;5.05;;
26540;SDS011;14206;50.202;10.948;2023-03-01T03:01:19;9.20;;;5.00;;
26540;SDS011;14206;50.202;10.948;2023-03-01T03:03:46;6.15;;;4.00;;
26540;SDS011;14206;50.202;10.948;2023-03-01T03:06:13;7.63;;;4.18;;
26540;SDS011;14206;50.202;10.948;2023-03-01T03:08:40;7.95;;;4.95;;
26540;SDS011;14206;50.202;10.948;2023-03-01T03:11:08;7.15;;;4.80;;
26540;SDS011;14206;50.202;10.948;2023-03-01T03:13:34;9.00;;;5.15;;
26540;SDS011;14206;50.202;10.948;2023-03-01T03:16:01;7.78;;;4.68;;
26540;SDS011;14206;50.202;10.948;2023-03-01T03:18:29;6.38;;;3.97;;
26540;SDS011;14206;50.202;10.948;2023-03-01T03:20:56;8.35;;;5.00;;
26540;SDS011;14206;50.202;10.948;2023-03-01T03:23:23;7.47;;;4.70;;
26540;SDS011;14206;50.202;10.948;2023-03-01T03:25:50;7.88;;;4.75;;
26540;SDS011;14206;50.202;10.948;2023-03-01T03:28:17;7.68;;;4.95;;
26540;SDS011;14206;50.202;10.948;2023-03-01T03:30:44;7.47;;;4.13;;
26540;SDS011;14206;50.202;10.948;2023-03-01T03:33:12;8.50;;;4.30;;
26540;SDS011;14206;50.202;10.948;2023-03-01T03:35:41;6.93;;;4.45;;
26540;SDS011;14206;50.202;10.948;2023-03-01T03:38:14;9.25;;;5.57;;
26540;SDS011;14206;50.202;10.948;2023-03-01T03:40:46;7.22;;;4.47;;
26540;SDS011;14206;50.202;10.948;2023-03-01T03:43:16;8.50;;;5.22;;
26540;SDS011;14206;50.202;10.948;2023-03-01T03:45:45;9.35;;;5.35;;
26540;SDS011;14206;50.202;10.948;2023-03-01T03:48:13;11.73;;;7.35;;
26540;SDS011;14206;50.202;10.948;2023-03-01T03:50:40;12.52;;;7.78;;
26540;SDS011;14206;50.202;10.948;2023-03-01T03:53:08;10.73;;;7.15;;
26540;SDS011;14206;50.202;10.948;2023-03-01T03:55:36;11.63;;;7.45;;
26540;SDS011;14206;50.202;10.948;2023-03-01T03:58:06;11.70;;;7.30;;
26540;SDS011;14206;50.202;10.948;2023-03-01T04:00:36;11.82;;;7.10;;
26540;SDS011;14206;50.202;10.948;2023-03-01T04:03:04;10.50;;;6.93;;
26540;SDS011;14206;50.202;10.948;2023-03-01T04:05:31;10.98;;;6.47;;
26540;SDS011;14206;50.202;10.948;2023-03-01T04:07:58;10.98;;;7.18;;
26540;SDS011;14206;50.202;10.948;2023-03-01T04:10:32;12.30;;;7.82;;
26540;SDS011;14206;50.202;10.948;2023-03-01T04:13:02;16.10;;;9.02;;
26540;SDS011;14206;50.202;10.948;2023-03-01T04:15:30;17.17;;;10.25;;
26540;SDS011;14206;50.202;10.948;2023-03-01T04:17:59;16.83;;;10.48;;
26540;SDS011;14206;50.202;10.948;2023-03-01T04:20:30;17.13;;;10.18;;
26540;SDS011;14206;50.202;10.948;2023-03-01T04:23:07;19.27;;;12.13;;
26540;SDS011;14206;50.202;10.948;2023-03-01T04:25:42;17.48;;;11.15;;
26540;SDS011;14206;50.202;10.948;2023-03-01T04:30:56;20.05;;;12.80;;
26540;SDS011;14206;50.202;10.948;2023-03-01T04:33:24;20.77;;;12.63;;
26540;SDS011;14206;50.202;10.948;2023-03-01T04:35:51;20.55;;;13.02;;
26540;SDS011;14206;50.202;10.948;2023-03-01T04:38:19;23.02;;;14.38;;
26540;SDS011;14206;50.202;10.948;2023-03-01T04:40:47;19.70;;;12.10;;
26540;SDS011;14206;50.202;10.948;2023-03-01T04:43:14;19.42;;;12.40;;
26540;SDS011;14206;50.202;10.948;2023-03-01T04:45:41;18.83;;;11.43;;
26540;SDS011;14206;50.202;10.948;2023-03-01T04:48:08;19.38;;;12.02;;
26540;SDS011;14206;50.202;10.948;2023-03-01T04:50:36;22.30;;;13.90;;
26540;SDS011;14206;50.202;10.948;2023-03-01T04:53:02;22.70;;;13.73;;
26540;SDS011;14206;50.202;10.948;2023-03-01T04:55:29;21.65;;;13.00;;
26540;SDS011;14206;50.202;10.948;2023-03-01T04:57:56;20.70;;;11.40;;
26540;SDS011;14206;50.202;10.948;2023-03-01T05:00:23;23.45;;;14.70;;
26540;SDS011;14206;50.202;10.948;2023-03-01T05:02:54;20.88;;;12.85;;
26540;SDS011;14206;50.202;10.948;2023-03-01T05:05:27;20.23;;;11.98;;
26540;SDS011;14206;50.202;10.948;2023-03-01T05:08:04;18.98;;;12.32;;
26540;SDS011;14206;50.202;10.948;2023-03-01T05:10:34;20.30;;;12.70;;
26540;SDS011;14206;50.202;10.948;2023-03-01T05:13:02;19.30;;;12.32;;
26540;SDS011;14206;50.202;10.948;2023-03-01T05:15:31;22.73;;;13.07;;
26540;SDS011;14206;50.202;10.948;2023-03-01T05:17:59;20.88;;;12.18;;
26540;SDS011;14206;50.202;10.948;2023-03-01T05:20:26;19.08;;;11.88;;
26540;SDS011;14206;50.202;10.948;2023-03-01T05:22:57;17.08;;;10.88;;
26540;SDS011;14206;50.202;10.948;2023-03-01T05:25:25;16.25;;;10.60;;
26540;SDS011;14206;50.202;10.948;2023-03-01T05:27:52;20.33;;;11.88;;
26540;SDS011;14206;50.202;10.948;2023-03-01T05:30:19;18.70;;;11.02;;
26540;SDS011;14206;50.202;10.948;2023-03-01T05:32:48;17.25;;;10.77;;
26540;SDS011;14206;50.202;10.948;2023-03-01T05:35:21;16.80;;;10.23;;
26540;SDS011;14206;50.202;10.948;2023-03-01T05:37:49;13.85;;;8.80;;
26540;SDS011;14206;50.202;10.948;2023-03-01T05:40:20;16.10;;;8.73;;
26540;SDS011;14206;50.202;10.948;2023-03-01T05:42:49;18.67;;;10.55;;
26540;SDS011;14206;50.202;10.948;2023-03-01T05:45:18;14.93;;;8.38;;
26540;SDS011;14206;50.202;10.948;2023-03-01T05:47:46;13.70;;;8.27;;
26540;SDS011;14206;50.202;10.948;2023-03-01T05:50:15;15.05;;;8.20;;
26540;SDS011;14206;50.202;10.948;2023-03-01T05:52:50;13.45;;;7.90;;
26540;SDS011;14206;50.202;10.948;2023-03-01T05:55:18;13.82;;;8.70;;
26540;SDS011;14206;50.202;10.948;2023-03-01T05:57:46;14.60;;;8.27;;
26540;SDS011;14206;50.202;10.948;2023-03-01T06:00:15;15.10;;;8.55;;
26540;SDS011;14206;50.202;10.948;2023-03-01T06:02:43;13.93;;;8.07;;
26540;SDS011;14206;50.202;10.948;2023-03-01T06:05:13;13.85;;;8.15;;
26540;SDS011;14206;50.202;10.948;2023-03-01T06:07:41;13.98;;;8.30;;
26540;SDS011;14206;50.202;10.948;2023-03-01T06:10:08;13.30;;;7.85;;
26540;SDS011;14206;50.202;10.948;2023-03-01T06:12:37;12.27;;;7.43;;
26540;SDS011;14206;50.202;10.948;2023-03-01T06:15:05;12.55;;;6.57;;
26540;SDS011;14206;50.202;10.948;2023-03-01T06:17:34;11.55;;;6.68;;
26540;SDS011;14206;50.202;10.948;2023-03-01T06:20:05;10.70;;;6.63;;
26540;SDS011;14206;50.202;10.948;2023-03-01T06:22:38;11.18;;;6.80;;
26540;SDS011;14206;50.202;10.948;2023-03-01T06:25:05;13.88;;;7.72;;
26540;SDS011;14206;50.202;10.948;2023-03-01T06:27:33;11.60;;;6.75;;
26540;SDS011;14206;50.202;10.948;2023-03-01T06:30:00;10.73;;;7.07;;
26540;SDS011;14206;50.202;10.948;2023-03-01T06:32:38;12.58;;;6.90;;
26540;SDS011;14206;50.202;10.948;2023-03-01T06:35:11;13.13;;;7.70;;
26540;SDS011;14206;50.202;10.948;2023-03-01T06:37:40;14.52;;;8.73;;
26540;SDS011;14206;50.202;10.948;2023-03-01T06:40:08;14.07;;;8.95;;
26540;SDS011;14206;50.202;10.948;2023-03-01T06:42:39;17.70;;;10.75;;
26540;SDS011;14206;50.202;10.948;2023-03-01T06:45:07;16.55;;;10.07;;
26540;SDS011;14206;50.202;10.948;2023-03-01T06:47:35;15.57;;;10.10;;
26540;SDS011;14206;50.202;10.948;2023-03-01T06:50:02;18.67;;;10.98;;
26540;SDS011;14206;50.202;10.948;2023-03-01T06:52:29;18.70;;;11.98;;
26540;SDS011;14206;50.202;10.948;2023-03-01T06:54:56;22.05;;;13.45;;
26540;SDS011;14206;50.202;10.948;2023-03-01T06:57:23;21.33;;;13.15;;
26540;SDS011;14206;50.202;10.948;2023-03-01T06:59:50;17.67;;;11.20;;
26540;SDS011;14206;50.202;10.948;2023-03-01T07:02:17;19.23;;;12.00;;
26540;SDS011;14206;50.202;10.948;2023-03-01T07:04:44;18.25;;;11.93;;
26540;SDS011;14206;50.202;10.948;2023-03-01T07:07:11;18.05;;;12.00;;
26540;SDS011;14206;50.202;10.948;2023-03-01T07:09:38;21.20;;;12.63;;
26540;SDS011;14206;50.202;10.948;2023-03-01T07:12:05;21.65;;;14.18;;
26540;SDS011;14206;50.202;10.948;2023-03-01T07:14:32;21.00;;;13.95;;
26540;SDS011;14206;50.202;10.948;2023-03-01T07:16:59;20.65;;;13.63;;
26540;SDS011;14206;50.202;10.948;2023-03-01T07:19:26;20.77;;;13.75;;
26540;SDS011;14206;50.202;10.948;2023-03-01T07:21:53;18.55;;;12.98;;
26540;SDS011;14206;50.202;10.948;2023-03-01T07:24:21;17.75;;;12.52;;
26540;SDS011;14206;50.202;10.948;2023-03-01T07:26:49;16.33;;;11.95;;
26540;SDS011;14206;50.202;10.948;2023-03-01T07:29:17;13.98;;;10.88;;
26540;SDS011;14206;50.202;10.948;2023-03-01T07:31:44;14.52;;;11.55;;
26540;SDS011;14206;50.202;10.948;2023-03-01T07:34:11;14.73;;;12.07;;
26540;SDS011;14206;50.202;10.948;2023-03-01T07:36:39;14.75;;;11.15;;
26540;SDS011;14206;50.202;10.948;2023-03-01T07:39:10;15.77;;;11.65;;
26540;SDS011;14206;50.202;10.948;2023-03-01T07:41:37;15.02;;;12.07;;
26540;SDS011;14206;50.202;10.948;2023-03-01T07:44:04;15.65;;;12.30;;
26540;SDS011;14206;50.202;10.948;2023-03-01T07:46:31;17.13;;;12.43;;
26540;SDS011;14206;50.202;10.948;2023-03-01T07:48:58;19.15;;;13.10;;
26540;SDS011;14206;50.202;10.948;2023-03-01T07:51:25;17.33;;;12.35;;
26540;SDS011;14206;50.202;10.948;2023-03-01T07:53:52;15.15;;;11.95;;
26540;SDS011;14206;50.202;10.948;2023-03-01T07:56:19;13.15;;;11.02;;
26540;SDS011;14206;50.202;10.948;2023-03-01T07:58:47;15.18;;;12.00;;
26540;SDS011;14206;50.202;10.948;2023-03-01T08:01:17;13.30;;;10.88;;
26540;SDS011;14206;50.202;10.948;2023-03-01T08:03:45;13.70;;;10.45;;
26540;SDS011;14206;50.202;10.948;2023-03-01T08:06:13;16.23;;;12.80;;
26540;SDS011;14206;50.202;10.948;2023-03-01T08:08:42;13.80;;;10.68;;
26540;SDS011;14206;50.202;10.948;2023-03-01T08:11:14;12.25;;;10.10;;
26540;SDS011;14206;50.202;10.948;2023-03-01T08:13:42;12.10;;;9.75;;
26540;SDS011;14206;50.202;10.948;2023-03-01T08:16:10;12.30;;;9.85;;
26540;SDS011;14206;50.202;10.948;2023-03-01T08:18:39;14.07;;;11.25;;
26540;SDS011;14206;50.202;10.948;2023-03-01T08:21:08;11.23;;;9.20;;
26540;SDS011;14206;50.202;10.948;2023-03-01T08:23:37;12.93;;;10.43;;
26540;SDS011;14206;50.202;10.948;2023-03-01T08:26:08;13.85;;;11.07;;
26540;SDS011;14206;50.202;10.948;2023-03-01T08:28:38;13.20;;;10.23;;
26540;SDS011;14206;50.202;10.948;2023-03-01T08:33:47;16.48;;;12.20;;
26540;SDS011;14206;50.202;10.948;2023-03-01T08:36:17;17.05;;;13.52;;
26540;SDS011;14206;50.202;10.948;2023-03-01T08:38:45;15.63;;;12.40;;
26540;SDS011;14206;50.202;10.948;2023-03-01T08:41:13;19.80;;;14.20;;
26540;SDS011;14206;50.202;10.948;2023-03-01T08:43:40;15.50;;;12.07;;
26540;SDS011;14206;50.202;10.948;2023-03-01T08:46:07;16.45;;;12.15;;
26540;SDS011;14206;50.202;10.948;2023-03-01T08:48:34;18.77;;;13.20;;
26540;SDS011;14206;50.202;10.948;2023-03-01T08:51:35;16.08;;;11.75;;
26540;SDS011;14206;50.202;10.948;2023-03-01T08:53:55;16.80;;;12.73;;
26540;SDS011;14206;50.202;10.948;2023-03-01T08:56:22;16.42;;;12.07;;
26540;SDS011;14206;50.202;10.948;2023-03-01T08:58:49;17.35;;;12.65;;
26540;SDS011;14206;50.202;10.948;2023-03-01T09:01:17;16.80;;;12.00;;
26540;SDS011;14206;50.202;10.948;2023-03-01T09:03:47;19.20;;;13.65;;
26540;SDS011;14206;50.202;10.948;2023-03-01T09:06:13;18.70;;;13.00;;
26540;SDS011;14206;50.202;10.948;2023-03-01T09:08:42;15.70;;;11.75;;
26540;SDS011;14206;50.202;10.948;2023-03-01T09:11:11;15.18;;;11.48;;
26540;SDS011;14206;50.202;10.948;2023-03-01T09:13:39;17.38;;;12.90;;
26540;SDS011;14206;50.202;10.948;2023-03-01T09:16:16;15.40;;;11.63;;
26540;SDS011;14206;50.202;10.948;2023-03-01T09:18:53;16.08;;;12.27;;
26540;SDS011;14206;50.202;10.948;2023-03-01T09:21:21;16.73;;;11.73;;
26540;SDS011;14206;50.202;10.948;2023-03-01T09:24:06;16.23;;;11.73;;
26540;SDS011;14206;50.202;10.948;2023-03-01T09:26:38;16.08;;;11.05;;
26540;SDS011;14206;50.202;10.948;2023-03-01T09:29:04;14.75;;;11.07;;
26540;SDS011;14206;50.202;10.948;2023-03-01T09:31:31;16.90;;;12.32;;
26540;SDS011;14206;50.202;10.948;2023-03-01T09:33:58;17.75;;;12.73;;
26540;SDS011;14206;50.202;10.948;2023-03-01T09:36:25;14.52;;;11.68;;
26540;SDS011;14206;50.202;10.948;2023-03-01T09:38:52;16.98;;;11.57;;
26540;SDS011;14206;50.202;10.948;2023-03-01T09:41:42;15.77;;;12.73;;
26540;SDS011;14206;50.202;10.948;2023-03-01T09:44:16;14.05;;;11.25;;
26540;SDS011;14206;50.202;10.948;2023-03-01T09:46:52;15.82;;;12.00;;
26540;SDS011;14206;50.202;10.948;2023-03-01T09:49:24;14.00;;;11.20;;
26540;SDS011;14206;50.202;10.948;2023-03-01T09:51:54;16.38;;;11.38;;
26540;SDS011;14206;50.202;10.948;2023-03-01T09:54:46;15.88;;;12.13;;
26540;SDS011;14206;50.202;10.948;2023-03-01T09:57:20;14.68;;;11.55;;
26540;SDS011;14206;50.202;10.948;2023-03-01T10:00:15;14.60;;;10.52;;
26540;SDS011;14206;50.202;10.948;2023-03-01T10:05:27;15.20;;;11.55;;
26540;SDS011;14206;50.202;10.948;2023-03-01T10:10:31;12.38;;;10.48;;
26540;SDS011;14206;50.202;10.948;2023-03-01T10:13:20;11.07;;;9.60;;
26540;SDS011;14206;50.202;10.948;2023-03-01T10:15:55;13.00;;;9.88;;
26540;SDS011;14206;50.202;10.948;2023-03-01T10:18:28;10.77;;;9.48;;
26540;SDS011;14206;50.202;10.948;2023-03-01T10:21:00;13.40;;;10.52;;
26540;SDS011;14206;50.202;10.948;2023-03-01T10:23:32;12.45;;;10.23;;
26540;SDS011;14206;50.202;10.948;2023-03-01T10:26:09;10.35;;;8.73;;
26540;SDS011;14206;50.202;10.948;2023-03-01T10:28:47;9.75;;;7.78;;
26540;SDS011;14206;50.202;10.948;2023-03-01T10:31:35;9.40;;;8.13;;
26540;SDS011;14206;50.202;10.948;2023-03-01T10:36:43;10.50;;;8.25;;
26540;SDS011;14206;50.202;10.948;2023-03-01T10:39:12;11.38;;;8.77;;
26540;SDS011;14206;50.202;10.948;2023-03-01T10:41:54;9.95;;;8.90;;
26540;SDS011;14206;50.202;10.948;2023-03-01T10:44:38;11.50;;;9.95;;
26540;SDS011;14206;50.202;10.948;2023-03-01T10:47:08;11.20;;;8.00;;
26540;SDS011;14206;50.202;10.948;2023-03-01T10:49:54;9.35;;;8.20;;
26540;SDS011;14206;50.202;10.948;2023-03-01T10:52:31;9.35;;;7.72;;
26540;SDS011;14206;50.202;10.948;2023-03-01T10:54:59;8.95;;;7.88;;
26540;SDS011;14206;50.202;10.948;2023-03-01T11:00:13;10.73;;;8.50;;
26540;SDS011;14206;50.202;10.948;2023-03-01T11:02:43;12.07;;;8.27;;
26540;SDS011;14206;50.202;10.948;2023-03-01T11:07:52;9.68;;;7.75;;
26540;SDS011;14206;50.202;10.948;2023-03-01T11:10:22;10.20;;;8.27;;
26540;SDS011;14206;50.202;10.948;2023-03-01T11:12:52;9.88;;;7.90;;
26540;SDS011;14206;50.202;10.948;2023-03-01T11:15:20;10.02;;;7.78;;
26540;SDS011;14206;50.202;10.948;2023-03-01T11:17:57;8.90;;;7.45;;
26540;SDS011;14206;50.202;10.948;2023-03-01T11:20:39;10.80;;;7.97;;
26540;SDS011;14206;50.202;10.948;2023-03-01T11:23:10;10.10;;;8.90;;
26540;SDS011;14206;50.202;10.948;2023-03-01T11:25:40;10.65;;;7.93;;
26540;SDS011;14206;50.202;10.948;2023-03-01T11:28:16;11.57;;;9.20;;
26540;SDS011;14206;50.202;10.948;2023-03-01T11:36:01;11.20;;;8.20;;
26540;SDS011;14206;50.202;10.948;2023-03-01T11:38:50;9.93;;;7.80;;
26540;SDS011;14206;50.202;10.948;2023-03-01T11:41:20;9.25;;;7.88;;
26540;SDS011;14206;50.202;10.948;2023-03-01T11:44:33;11.27;;;8.68;;
26540;SDS011;14206;50.202;10.948;2023-03-01T11:49:38;12.70;;;9.70;;
26540;SDS011;14206;50.202;10.948;2023-03-01T12:08:57;10.18;;;8.52;;
26540;SDS011;14206;50.202;10.948;2023-03-01T12:20:19;11.20;;;8.80;;
26540;SDS011;14206;50.202;10.948;2023-03-01T12:23:09;12.32;;;8.82;;
26540;SDS011;14206;50.202;10.948;2023-03-01T12:34:26;16.00;;;10.48;;
26540;SDS011;14206;50.202;10.948;2023-03-01T12:39:51;10.60;;;7.97;;
26540;SDS011;14206;50.202;10.948;2023-03-01T12:42:41;11.57;;;8.45;;
26540;SDS011;14206;50.202;10.948;2023-03-01T12:45:34;11.68;;;8.40;;
26540;SDS011;14206;50.202;10.948;2023-03-01T12:51:03;10.95;;;8.52;;
26540;SDS011;14206;50.202;10.948;2023-03-01T12:53:40;11.30;;;8.85;;
26540;SDS011;14206;50.202;10.948;2023-03-01T12:56:12;9.68;;;7.32;;
26540;SDS011;14206;50.202;10.948;2023-03-01T12:58:50;11.30;;;7.93;;
26540;SDS011;14206;50.202;10.948;2023-03-01T13:06:47;11.70;;;9.25;;
26540;SDS011;14206;50.202;10.948;2023-03-01T13:09:51;13.52;;;9.98;;
26540;SDS011;14206;50.202;10.948;2023-03-01T13:12:50;13.38;;;10.18;;
26540;SDS011;14206;50.202;10.948;2023-03-01T13:17:56;15.15;;;10.50;;
26540;SDS011;14206;50.202;10.948;2023-03-01T13:20:50;13.75;;;10.50;;
26540;SDS011;14206;50.202;10.948;2023-03-01T13:28:39;14.82;;;10.55;;
26540;SDS011;14206;50.202;10.948;2023-03-01T13:33:45;12.98;;;9.18;;
26540;SDS011;14206;50.202;10.948;2023-03-01T13:38:57;12.63;;;9.48;;
26540;SDS011;14206;50.202;10.948;2023-03-01T13:49:22;14.02;;;10.07;;
26540;SDS011;14206;50.202;10.948;2023-03-01T13:52:00;15.38;;;10.40;;
26540;SDS011;14206;50.202;10.948;2023-03-01T13:54:32;15.70;;;10.80;;
26540;SDS011;14206;50.202;10.948;2023-03-01T13:57:00;14.70;;;10.63;;
26540;SDS011;14206;50.202;10.948;2023-03-01T13:59:28;13.02;;;10.38;;
26540;SDS011;14206;50.202;10.948;2023-03-01T14:01:57;16.17;;;11.95;;
26540;SDS011;14206;50.202;10.948;2023-03-01T14:04:27;14.20;;;10.98;;
26540;SDS011;14206;50.202;10.948;2023-03-01T14:07:10;14.32;;;10.60;;
26540;SDS011;14206;50.202;10.948;2023-03-01T14:09:48;15.82;;;11.82;;
26540;SDS011;14206;50.202;10.948;2023-03-01T14:15:22;18.30;;;11.90;;
26540;SDS011;14206;50.202;10.948;2023-03-01T14:18:16;15.48;;;11.73;;
26540;SDS011;14206;50.202;10.948;2023-03-01T14:20:53;16.85;;;11.73;;
26540;SDS011;14206;50.202;10.948;2023-03-01T14:23:21;14.00;;;11.13;;
26540;SDS011;14206;50.202;10.948;2023-03-01T14:25:58;16.00;;;12.15;;
26540;SDS011;14206;50.202;10.948;2023-03-01T14:28:27;17.48;;;12.85;;
26540;SDS011;14206;50.202;10.948;2023-03-01T14:30:59;17.15;;;12.48;;
26540;SDS011;14206;50.202;10.948;2023-03-01T14:33:28;16.92;;;12.25;;
26540;SDS011;14206;50.202;10.948;2023-03-01T14:36:01;14.60;;;11.35;;
26540;SDS011;14206;50.202;10.948;2023-03-01T14:43:44;15.80;;;11.50;;
26540;SDS011;14206;50.202;10.948;2023-03-01T14:46:20;16.35;;;12.35;;
26540;SDS011;14206;50.202;10.948;2023-03-01T14:48:48;19.05;;;13.45;;
26540;SDS011;14206;50.202;10.948;2023-03-01T14:51:20;18.17;;;12.18;;
26540;SDS011;14206;50.202;10.948;2023-03-01T14:53:47;16.60;;;12.13;;
26540;SDS011;14206;50.202;10.948;2023-03-01T14:56:16;17.77;;;12.38;;
26540;SDS011;14206;50.202;10.948;2023-03-01T14:58:45;15.63;;;11.10;;
26540;SDS011;14206;50.202;10.948;2023-03-01T15:01:14;17.48;;;12.18;;
26540;SDS011;14206;50.202;10.948;2023-03-01T15:03:47;18.05;;;12.40;;
26540;SDS011;14206;50.202;10.948;2023-03-01T15:06:17;17.92;;;11.95;;
26540;SDS011;14206;50.202;10.948;2023-03-01T15:08:47;18.77;;;12.90;;
26540;SDS011;14206;50.202;10.948;2023-03-01T15:11:18;18.75;;;12.48;;
26540;SDS011;14206;50.202;10.948;2023-03-01T15:13:51;17.52;;;12.77;;
26540;SDS011;14206;50.202;10.948;2023-03-01T15:16:19;20.50;;;13.50;;
26540;SDS011;14206;50.202;10.948;2023-03-01T15:18:51;18.85;;;14.02;;
26540;SDS011;14206;50.202;10.948;2023-03-01T15:21:25;17.80;;;12.75;;
26540;SDS011;14206;50.202;10.948;2023-03-01T15:24:16;17.30;;;11.73;;
26540;SDS011;14206;50.202;10.948;2023-03-01T15:29:22;23.30;;;15.07;;
26540;SDS011;14206;50.202;10.948;2023-03-01T15:31:57;18.90;;;13.23;;
26540;SDS011;14206;50.202;10.948;2023-03-01T15:34:29;17.75;;;13.90;;
26540;SDS011;14206;50.202;10.948;2023-03-01T15:37:00;20.90;;;13.48;;
26540;SDS011;14206;50.202;10.948;2023-03-01T15:47:47;19.80;;;13.20;;
26540;SDS011;14206;50.202;10.948;2023-03-01T15:50:24;17.73;;;12.93;;
26540;SDS011;14206;50.202;10.948;2023-03-01T15:52:53;20.17;;;14.30;;
26540;SDS011;14206;50.202;10.948;2023-03-01T15:55:29;19.85;;;14.38;;
26540;SDS011;14206;50.202;10.948;2023-03-01T15:58:03;21.70;;;14.70;;
26540;SDS011;14206;50.202;10.948;2023-03-01T16:00:36;18.42;;;13.30;;
26540;SDS011;14206;50.202;10.948;2023-03-01T16:03:12;19.35;;;13.55;;
26540;SDS011;14206;50.202;10.948;2023-03-01T16:05:40;19.33;;;13.38;;
26540;SDS011;14206;50.202;10.948;2023-03-01T16:08:07;18.05;;;12.15;;
26540;SDS011;14206;50.202;10.948;2023-03-01T16:10:35;19.92;;;13.73;;
26540;SDS011;14206;50.202;10.948;2023-03-01T16:13:02;19.52;;;13.88;;
26540;SDS011;14206;50.202;10.948;2023-03-01T16:15:30;17.83;;;12.55;;
26540;SDS011;14206;50.202;10.948;2023-03-01T16:18:02;17.65;;;11.85;;
26540;SDS011;14206;50.202;10.948;2023-03-01T16:20:30;17.02;;;11.63;;
26540;SDS011;14206;50.202;10.948;2023-03-01T16:22:59;17.75;;;12.52;;
26540;SDS011;14206;50.202;10.948;2023-03-01T16:25:28;17.85;;;12.00;;
26540;SDS011;14206;50.202;10.948;2023-03-01T16:27:56;16.52;;;11.73;;
26540;SDS011;14206;50.202;10.948;2023-03-01T16:30:27;15.90;;;11.25;;
26540;SDS011;14206;50.202;10.948;2023-03-01T16:32:54;14.73;;;10.38;;
26540;SDS011;14206;50.202;10.948;2023-03-01T16:35:22;13.73;;;10.05;;
26540;SDS011;14206;50.202;10.948;2023-03-01T16:37:49;15.95;;;9.98;;
26540;SDS011;14206;50.202;10.948;2023-03-01T16:40:20;18.58;;;12.52;;
26540;SDS011;14206;50.202;10.948;2023-03-01T16:42:49;21.92;;;14.55;;
26540;SDS011;14206;50.202;10.948;2023-03-01T16:45:17;20.48;;;13.65;;
26540;SDS011;14206;50.202;10.948;2023-03-01T16:47:54;18.98;;;12.82;;
26540;SDS011;14206;50.202;10.948;2023-03-01T16:50:26;16.40;;;11.00;;